Time;durP1;ratioP1;P1;durP2;ratioP2;P2;SDS_P1;SDS_P2;PMS_P1;PMS_P2;Temp;Humidity;BMP_temperature;BMP_pressure;BME280_temperature;BME280_humidity;BME280_pressure;Samples;Min_cycle;Max_cycle;Signal;HPM_P1;HPM_P2
2022/05/27 00:01:05;;;;;;;1.70;1.60;;;;;;;20.84;75.71;100471.38;5071881;28;20267;-74
2022/05/27 00:03:32;;;;;;;1.33;1.25;;;;;;;20.86;75.17;100466.97;5071312;28;20248;-74
2022/05/27 00:05:59;;;;;;;2.00;1.90;;;;;;;20.81;75.50;100458.28;5072354;28;20210;-74
2022/05/27 00:08:28;;;;;;;1.50;1.40;;;;;;;20.77;75.33;100467.16;5073409;28;20253;-74
2022/05/27 00:10:55;;;;;;;1.52;1.45;;;;;;;20.64;75.85;100470.94;5081745;28;20231;-74
2022/05/27 00:13:22;;;;;;;1.80;1.70;;;;;;;20.88;75.58;100488.00;5083488;28;20194;-74
2022/05/27 00:15:49;;;;;;;2.10;1.98;;;;;;;20.84;76.77;100484.56;5076344;28;20260;-74
2022/05/27 00:18:16;;;;;;;2.38;2.17;;;;;;;20.79;76.57;100491.72;5071212;28;20226;-74
2022/05/27 00:20:43;;;;;;;1.65;1.40;;;;;;;20.57;77.02;100464.06;5071221;28;20207;-74
2022/05/27 00:23:10;;;;;;;3.13;1.65;;;;;;;20.46;77.80;100460.75;5070569;28;20639;-74
2022/05/27 00:25:39;;;;;;;4.18;1.67;;;;;;;20.52;77.72;100466.75;5084629;28;20206;-75
2022/05/27 00:28:06;;;;;;;3.03;1.48;;;;;;;20.59;77.80;100475.41;5076534;28;20807;-74
2022/05/27 00:30:32;;;;;;;2.45;2.22;;;;;;;20.62;78.04;100472.72;5091489;28;20201;-74
2022/05/27 00:32:59;;;;;;;2.00;1.60;;;;;;;20.37;78.03;100455.69;5075113;28;20210;-74
2022/05/27 00:35:27;;;;;;;1.60;1.50;;;;;;;20.43;79.10;100472.22;5071028;28;20642;-74
2022/05/27 00:37:54;;;;;;;1.63;1.52;;;;;;;20.48;79.15;100474.75;5071602;28;20648;-74
2022/05/27 00:40:22;;;;;;;1.90;1.80;;;;;;;20.42;79.53;100472.25;5071813;28;20697;-74
2022/05/27 00:42:50;;;;;;;4.80;1.60;;;;;;;20.28;79.76;100462.84;5053473;28;20199;-74
2022/05/27 00:45:19;;;;;;;5.13;1.80;;;;;;;20.39;80.05;100477.56;5087458;28;20191;-74
2022/05/27 00:47:48;;;;;;;2.47;2.00;;;;;;;20.19;80.26;100438.41;5075473;28;20203;-74
2022/05/27 00:50:19;;;;;;;5.72;1.40;;;;;;;20.20;81.37;100464.72;5089041;28;20202;-74
2022/05/27 00:52:48;;;;;;;2.10;1.90;;;;;;;20.19;81.91;100470.03;5088432;28;20654;-74
2022/05/27 00:55:21;;;;;;;6.47;2.13;;;;;;;20.14;81.98;100459.56;5070834;28;20199;-74
2022/05/27 00:57:52;;;;;;;2.58;1.75;;;;;;;20.12;82.41;100453.44;5070518;28;20654;-74
2022/05/27 01:00:22;;;;;;;1.55;1.45;;;;;;;19.98;82.62;100463.34;5086822;28;20256;-74
2022/05/27 01:02:50;;;;;;;5.97;1.70;;;;;;;20.00;83.41;100476.50;5090465;28;20751;-74
2022/05/27 01:05:20;;;;;;;1.35;1.35;;;;;;;20.12;82.58;100465.75;5050754;28;20207;-74
2022/05/27 01:07:47;;;;;;;2.05;1.92;;;;;;;19.93;83.36;100461.69;5070324;28;20238;-73
2022/05/27 01:10:19;;;;;;;1.98;1.48;;;;;;;20.01;83.23;100488.75;5082559;28;20202;-74
2022/05/27 01:13:06;;;;;;;2.22;1.42;;;;;;;19.90;84.44;100478.41;5077689;28;20223;-74
2022/05/27 01:15:45;;;;;;;1.85;1.75;;;;;;;20.01;83.86;100479.06;5087107;28;20198;-74
2022/05/27 01:20:18;;;;;;;3.70;1.73;;;;;;;19.94;83.91;100474.81;5089228;28;20225;-74
2022/05/27 01:21:21;;;;;;;2.83;1.70;;;;;;;19.83;84.95;100458.34;5085505;28;20189;-74
2022/05/27 01:24:20;;;;;;;3.88;1.75;;;;;;;19.85;85.45;100474.09;5051568;28;20199;-74
2022/05/27 01:27:20;;;;;;;1.50;1.40;;;;;;;19.70;86.23;100472.59;5077463;28;20202;-74
2022/05/27 01:30:20;;;;;;;3.42;1.50;;;;;;;19.80;86.47;100474.16;5090245;28;20267;-75
2022/05/27 01:32:59;;;;;;;4.40;2.55;;;;;;;19.66;86.33;100482.28;5057788;28;20207;-74
2022/05/27 01:35:37;;;;;;;2.03;1.92;;;;;;;19.65;86.81;100463.91;5070467;28;20608;-74
2022/05/27 01:38:12;;;;;;;3.05;2.55;;;;;;;19.72;87.51;100473.44;5070145;28;20218;-74
2022/05/27 01:40:49;;;;;;;2.38;2.17;;;;;;;19.63;86.49;100465.69;5070443;28;20202;-74
2022/05/27 01:43:20;;;;;;;1.80;1.70;;;;;;;19.54;86.64;100468.47;5071592;28;20195;-73
2022/05/27 01:45:56;;;;;;;3.47;2.40;;;;;;;19.52;87.53;100457.09;5078579;28;20262;-73
2022/05/27 01:48:28;;;;;;;1.70;1.60;;;;;;;19.43;87.38;100433.56;5094216;28;20216;-74
2022/05/27 01:51:05;;;;;;;3.90;2.58;;;;;;;19.50;88.44;100472.03;5094076;28;20633;-74
2022/05/27 01:53:41;;;;;;;1.95;1.85;;;;;;;19.47;87.87;100474.72;5082220;28;20260;-74
2022/05/27 01:56:15;;;;;;;1.70;1.60;;;;;;;19.49;88.57;100475.56;5092715;28;20205;-75
2022/05/27 01:58:47;;;;;;;5.07;2.15;;;;;;;19.49;88.84;100472.91;5087915;28;20586;-74
2022/05/27 02:01:22;;;;;;;1.65;1.55;;;;;;;19.20;89.79;100445.25;5084297;28;20198;-74
2022/05/27 02:03:54;;;;;;;2.10;2.00;;;;;;;19.29;90.79;100463.56;5056999;28;20201;-74
2022/05/27 02:06:26;;;;;;;2.30;1.90;;;;;;;19.39;90.30;100469.53;5086498;28;20210;-74
2022/05/27 02:08:57;;;;;;;2.10;2.00;;;;;;;19.29;91.49;100479.31;5087348;28;20226;-74
2022/05/27 02:11:25;;;;;;;2.05;1.80;;;;;;;19.14;91.95;100476.03;5074904;28;20199;-74
2022/05/27 02:13:59;;;;;;;2.53;2.33;;;;;;;19.35;92.49;100485.38;5073355;28;20740;-74
2022/05/27 02:16:34;;;;;;;5.70;2.33;;;;;;;19.24;95.43;100489.03;5074319;28;20662;-74
2022/05/27 02:19:06;;;;;;;4.15;2.30;;;;;;;19.15;93.95;100470.75;5073278;28;20230;-74
2022/05/27 02:21:39;;;;;;;1.98;1.83;;;;;;;19.11;95.16;100482.19;5073545;28;20260;-74
2022/05/27 02:24:12;;;;;;;2.67;2.17;;;;;;;19.11;95.51;100483.97;5079129;28;20202;-74
2022/05/27 02:26:41;;;;;;;4.85;2.13;;;;;;;19.06;94.67;100488.38;5093359;28;20198;-74
2022/05/27 02:29:11;;;;;;;7.85;2.20;;;;;;;18.92;96.86;100475.44;5081072;28;20203;-74
2022/05/27 02:31:44;;;;;;;3.08;2.10;;;;;;;19.10;97.16;100498.84;5073512;28;20249;-74
2022/05/27 02:37:06;;;;;;;2.03;1.92;;;;;;;19.11;96.39;100503.22;5058872;28;20202;-74
2022/05/27 02:39:34;;;;;;;2.00;1.90;;;;;;;19.00;97.32;100494.63;5073219;28;20276;-74
2022/05/27 02:42:10;;;;;;;1.98;1.85;;;;;;;18.82;98.07;100476.44;5074087;28;20268;-74
2022/05/27 02:44:46;;;;;;;6.20;1.95;;;;;;;18.80;99.56;100497.47;5086037;28;20620;-72
2022/05/27 02:47:23;;;;;;;2.17;2.08;;;;;;;18.92;100.00;100490.31;5049631;28;20198;-75
2022/05/27 02:49:58;;;;;;;2.40;2.20;;;;;;;19.07;97.60;100491.00;5073249;28;20218;-75
2022/05/27 02:52:34;;;;;;;2.45;2.10;;;;;;;19.07;98.37;100484.88;5054296;28;20198;-74
2022/05/27 02:55:11;;;;;;;2.15;2.05;;;;;;;19.18;96.93;100489.13;5077660;28;20256;-75
2022/05/27 02:57:42;;;;;;;2.72;2.20;;;;;;;19.12;97.11;100499.69;5073139;28;20195;-75
2022/05/27 03:00:13;;;;;;;1.98;1.88;;;;;;;18.98;98.02;100485.84;5091280;28;20202;-77
2022/05/27 03:02:41;;;;;;;2.33;2.13;;;;;;;19.02;98.03;100495.44;5092606;28;20197;-76
2022/05/27 03:05:09;;;;;;;2.88;2.05;;;;;;;19.01;97.31;100496.34;5090902;28;20254;-76
2022/05/27 03:07:48;;;;;;;6.80;2.55;;;;;;;19.02;98.22;100490.19;5092495;28;20667;-75
2022/05/27 03:10:35;;;;;;;2.03;1.83;;;;;;;19.13;97.80;100497.94;5092876;28;20202;-75
2022/05/27 03:13:17;;;;;;;2.78;2.50;;;;;;;19.22;98.71;100501.34;5042391;28;20637;-76
2022/05/27 03:15:55;;;;;;;3.65;2.75;;;;;;;19.14;100.00;100476.03;5036584;28;20186;-75
2022/05/27 03:18:38;;;;;;;3.47;1.77;;;;;;;19.52;93.71;100509.69;5072466;28;20225;-75
2022/05/27 03:21:14;;;;;;;1.98;1.85;;;;;;;19.68;90.73;100508.59;5072164;28;20209;-75
2022/05/27 03:24:03;;;;;;;1.70;1.60;;;;;;;19.97;88.56;100502.88;5082907;28;20205;-76
2022/05/27 03:26:37;;;;;;;1.80;1.70;;;;;;;20.14;86.91;100514.84;5044161;28;20285;-76
2022/05/27 03:29:17;;;;;;;2.88;2.00;;;;;;;20.03;86.79;100479.94;5086552;28;20854;-75
2022/05/27 03:32:04;;;;;;;2.55;1.98;;;;;;;20.33;87.15;100517.19;5085977;28;20213;-77
2022/05/27 03:34:40;;;;;;;6.07;2.38;;;;;;;20.48;85.82;100522.16;5092049;28;20710;-77
2022/05/27 03:37:12;;;;;;;2.08;1.98;;;;;;;20.75;83.97;100511.13;5091901;28;20219;-76
2022/05/27 03:39:47;;;;;;;4.63;2.17;;;;;;;21.06;83.38;100528.06;5091840;28;20222;-75
2022/05/27 03:42:15;;;;;;;2.03;1.90;;;;;;;21.36;78.93;100528.34;5075791;28;20202;-74
2022/05/27 03:44:51;;;;;;;2.50;2.30;;;;;;;21.88;77.66;100526.25;5086549;28;20194;-75
2022/05/27 03:47:18;;;;;;;3.90;2.25;;;;;;;22.05;77.72;100526.72;5074392;28;20285;-71
2022/05/27 03:49:46;;;;;;;3.75;2.15;;;;;;;22.26;72.94;100527.13;5022149;28;20206;-76
2022/05/27 03:52:19;;;;;;;6.13;2.28;;;;;;;22.24;73.13;100533.28;5085106;28;20210;-75
2022/05/27 03:54:46;;;;;;;2.20;1.55;;;;;;;22.06;72.46;100523.19;5071706;28;20289;-74
2022/05/27 03:57:12;;;;;;;1.60;1.50;;;;;;;22.62;70.81;100523.47;5071833;28;20202;-79
2022/05/27 03:59:39;;;;;;;3.88;2.08;;;;;;;22.43;70.85;100514.31;5074073;28;20226;-77
2022/05/27 04:02:06;;;;;;;2.03;1.80;;;;;;;22.34;70.98;100527.75;5052231;28;20203;-73
2022/05/27 04:04:33;;;;;;;1.60;1.50;;;;;;;22.61;69.76;100524.41;5080600;28;20197;-77
2022/05/27 04:07:01;;;;;;;2.65;1.63;;;;;;;22.69;69.57;100527.72;5072267;28;20209;-79
2022/05/27 04:09:28;;;;;;;3.30;2.05;;;;;;;22.93;68.97;100545.59;5072898;28;20222;-76
2022/05/27 04:11:56;;;;;;;1.80;1.70;;;;;;;22.95;67.90;100527.88;5071595;28;20202;-77
2022/05/27 04:14:23;;;;;;;2.95;1.90;;;;;;;23.53;66.25;100539.41;5079925;28;20202;-77
2022/05/27 04:16:50;;;;;;;2.00;1.90;;;;;;;23.02;66.40;100521.50;5091274;28;20190;-77
2022/05/27 04:19:17;;;;;;;3.08;2.08;;;;;;;23.44;65.53;100529.09;5077408;28;20219;-77
2022/05/27 04:21:45;;;;;;;1.80;1.70;;;;;;;23.25;65.26;100504.09;5085713;28;20198;-75
2022/05/27 04:24:13;;;;;;;2.95;1.83;;;;;;;24.03;63.77;100528.09;5070977;28;20202;-75
2022/05/27 04:26:40;;;;;;;1.75;1.65;;;;;;;24.03;62.35;100541.34;5083742;28;20702;-73
2022/05/27 04:29:06;;;;;;;3.00;1.88;;;;;;;23.68;64.04;100517.78;5068767;28;20279;-75
2022/05/27 04:31:33;;;;;;;2.38;2.00;;;;;;;23.61;64.02;100538.28;5077689;28;20198;-76
2022/05/27 04:34:00;;;;;;;2.80;1.90;;;;;;;23.27;65.32;100539.28;5072037;28;20213;-80
2022/05/27 04:36:27;;;;;;;2.55;2.13;;;;;;;23.83;63.85;100541.09;5088104;28;20268;-75
2022/05/27 04:38:53;;;;;;;1.90;1.80;;;;;;;24.09;62.06;100550.84;5072306;28;20215;-75
2022/05/27 04:41:24;;;;;;;1.80;1.70;;;;;;;24.65;61.21;100535.69;5072087;28;20646;-75
2022/05/27 04:43:51;;;;;;;3.40;2.40;;;;;;;24.43;59.66;100540.03;5068664;28;20198;-75
2022/05/27 04:46:18;;;;;;;1.77;1.67;;;;;;;24.21;60.24;100542.53;5068302;28;20203;-74
2022/05/27 04:48:45;;;;;;;2.15;2.05;;;;;;;23.13;63.75;100524.69;5055220;28;20606;-74
2022/05/27 04:51:12;;;;;;;2.60;2.20;;;;;;;23.34;65.47;100548.78;5076260;28;20216;-74
2022/05/27 04:53:38;;;;;;;5.88;2.17;;;;;;;24.08;63.10;100544.69;5075977;28;20195;-77
2022/05/27 04:56:05;;;;;;;1.65;1.55;;;;;;;23.79;63.04;100536.84;5070935;28;20218;-74
2022/05/27 04:58:34;;;;;;;2.05;1.92;;;;;;;23.62;65.75;100547.94;5070370;28;20624;-74
2022/05/27 05:01:00;;;;;;;2.03;1.83;;;;;;;24.07;63.33;100548.28;5028953;28;20203;-74
2022/05/27 05:03:27;;;;;;;4.43;3.88;;;;;;;23.88;64.28;100544.47;5058022;28;20202;-72
2022/05/27 05:05:54;;;;;;;2.95;2.72;;;;;;;24.05;63.05;100560.69;5070693;28;20202;-73
2022/05/27 05:08:32;;;;;;;2.80;1.92;;;;;;;24.44;61.85;100555.00;5087904;28;20234;-76
2022/05/27 05:11:00;;;;;;;1.85;1.75;;;;;;;24.19;61.53;100547.88;5090655;28;20230;-77
2022/05/27 05:13:26;;;;;;;3.15;2.20;;;;;;;23.78;62.58;100548.34;5090878;28;20643;-76
2022/05/27 05:15:55;;;;;;;2.03;1.92;;;;;;;23.56;63.80;100556.06;5090790;28;20606;-75
2022/05/27 05:18:21;;;;;;;3.10;2.10;;;;;;;23.97;63.48;100549.47;5071549;28;20201;-75
2022/05/27 05:20:48;;;;;;;1.75;1.65;;;;;;;23.99;63.05;100534.41;5085487;28;20213;-75
2022/05/27 05:23:15;;;;;;;5.22;1.88;;;;;;;24.43;60.92;100561.25;5086030;28;20202;-75
2022/05/27 05:25:42;;;;;;;1.85;1.75;;;;;;;23.91;62.44;100536.44;5094991;28;20713;-79
2022/05/27 05:28:08;;;;;;;1.75;1.65;;;;;;;24.06;62.95;100570.38;5090790;28;20194;-78
2022/05/27 05:30:36;;;;;;;3.72;2.20;;;;;;;24.16;62.98;100558.59;5092645;28;20270;-74
2022/05/27 05:33:04;;;;;;;3.72;2.00;;;;;;;24.08;63.17;100560.59;5088357;28;20198;-75
2022/05/27 05:35:31;;;;;;;1.80;1.70;;;;;;;24.43;61.32;100561.25;5075494;28;20202;-74
2022/05/27 05:37:58;;;;;;;1.83;1.55;;;;;;;24.45;60.99;100570.00;5055544;28;20209;-74
2022/05/27 05:40:25;;;;;;;2.38;2.17;;;;;;;24.28;63.83;100561.75;5080619;28;20362;-74
2022/05/27 05:42:51;;;;;;;2.05;1.95;;;;;;;24.33;62.34;100565.13;5094637;28;20198;-74
2022/05/27 05:45:19;;;;;;;2.78;2.08;;;;;;;24.49;61.72;100576.94;5094710;28;20255;-74
2022/05/27 05:47:46;;;;;;;2.55;2.30;;;;;;;23.89;63.86;100578.00;5087835;28;20551;-73
2022/05/27 05:50:16;;;;;;;1.88;1.77;;;;;;;23.46;69.44;100561.69;5069507;28;20206;-75
2022/05/27 05:52:43;;;;;;;2.63;2.15;;;;;;;23.21;68.89;100565.03;5064003;28;20204;-75
2022/05/27 05:55:12;;;;;;;2.20;2.10;;;;;;;23.25;70.19;100564.94;5065130;28;20297;-73
2022/05/27 05:57:41;;;;;;;2.40;2.25;;;;;;;23.26;70.89;100564.88;5063720;28;20201;-74
2022/05/27 06:00:09;;;;;;;2.13;1.98;;;;;;;23.47;69.86;100566.09;5072999;28;20229;-73
2022/05/27 06:02:36;;;;;;;2.67;2.30;;;;;;;24.04;68.61;100574.00;5070318;28;20191;-73
2022/05/27 06:05:04;;;;;;;2.45;1.90;;;;;;;24.08;67.09;100576.47;5068561;28;20206;-73
2022/05/27 06:07:33;;;;;;;5.10;2.22;;;;;;;23.90;67.91;100553.22;5062507;28;20868;-74
2022/05/27 06:10:00;;;;;;;5.57;2.40;;;;;;;23.80;68.54;100572.09;5053832;28;20200;-75
2022/05/27 06:12:27;;;;;;;3.30;2.30;;;;;;;23.76;68.06;100573.97;5061237;28;20218;-74
2022/05/27 06:14:55;;;;;;;5.32;2.40;;;;;;;23.87;68.38;100569.22;5070123;28;20202;-73
2022/05/27 06:17:22;;;;;;;2.08;1.88;;;;;;;23.77;67.89;100551.91;5069680;28;20205;-74
2022/05/27 06:19:49;;;;;;;2.45;2.25;;;;;;;23.86;67.22;100558.69;5069163;28;20231;-74
2022/05/27 06:22:15;;;;;;;8.25;2.33;;;;;;;23.50;70.00;100561.56;5063445;28;20195;-73
2022/05/27 06:24:44;;;;;;;2.35;2.15;;;;;;;23.53;70.20;100497.06;5070178;28;20210;-74
2022/05/27 06:27:11;;;;;;;1.83;1.73;;;;;;;23.92;69.95;100572.59;5072127;28;20274;-74
2022/05/27 06:35:07;;;;;;;3.25;1.85;;;;;;;23.37;73.26;100565.44;5066792;28;20245;-74
2022/05/27 06:37:34;;;;;;;2.40;2.20;;;;;;;23.44;73.27;100566.16;5052955;28;20192;-75
2022/05/27 06:40:03;;;;;;;2.53;2.33;;;;;;;23.34;73.49;100575.25;5068538;28;20690;-74
2022/05/27 06:42:30;;;;;;;3.13;2.30;;;;;;;23.31;73.73;100570.06;5072589;28;20698;-75
2022/05/27 06:44:57;;;;;;;3.65;2.15;;;;;;;23.49;77.21;100575.72;5072936;28;20285;-76
2022/05/27 06:47:23;;;;;;;4.05;2.20;;;;;;;23.73;72.73;100575.84;5064199;28;20608;-76
2022/05/27 06:49:50;;;;;;;4.30;2.60;;;;;;;23.76;72.51;100570.50;5068789;28;20207;-75
2022/05/27 06:52:17;;;;;;;8.98;2.20;;;;;;;23.60;73.54;100546.25;5069467;28;20689;-75
2022/05/27 06:54:44;;;;;;;3.58;2.20;;;;;;;23.61;71.81;100545.34;5053476;28;20203;-75
2022/05/27 06:57:13;;;;;;;6.47;2.40;;;;;;;23.80;71.07;100578.28;5052114;28;20285;-75
2022/05/27 06:59:40;;;;;;;2.80;2.30;;;;;;;23.92;71.63;100583.19;5052562;28;20226;-76
2022/05/27 07:02:08;;;;;;;5.47;2.78;;;;;;;23.80;71.91;100586.22;5052400;28;20685;-76
2022/05/27 07:04:35;;;;;;;4.53;2.40;;;;;;;23.81;70.63;100571.19;5053784;28;20897;-74
2022/05/27 07:07:04;;;;;;;2.70;2.50;;;;;;;23.83;71.04;100578.19;5052213;28;20276;-76
2022/05/27 07:09:35;;;;;;;2.90;2.30;;;;;;;23.90;71.72;100582.38;5052003;28;20243;-75
2022/05/27 07:12:05;;;;;;;4.40;2.25;;;;;;;24.07;73.39;100561.53;5052178;28;20671;-74
2022/05/27 07:14:34;;;;;;;2.70;2.45;;;;;;;24.04;74.15;100577.50;5063187;28;20214;-74
2022/05/27 07:17:00;;;;;;;6.40;3.22;;;;;;;23.81;76.83;100557.97;5069844;28;20210;-75
2022/05/27 07:19:27;;;;;;;3.95;2.85;;;;;;;23.78;82.17;100564.22;5060905;28;20277;-74
2022/05/27 07:21:56;;;;;;;4.63;2.58;;;;;;;23.65;80.55;100576.97;5052560;28;20208;-74
2022/05/27 07:24:24;;;;;;;3.50;2.67;;;;;;;23.93;77.37;100563.75;5062925;28;20615;-75
2022/05/27 07:26:50;;;;;;;3.10;2.80;;;;;;;23.96;78.01;100584.84;5057970;28;20289;-76
2022/05/27 07:29:18;;;;;;;5.45;3.30;;;;;;;24.03;76.39;100561.66;5067965;28;20709;-73
2022/05/27 07:31:47;;;;;;;7.25;3.22;;;;;;;24.00;78.31;100562.63;5070611;28;20198;-74
2022/05/27 07:34:13;;;;;;;5.72;3.20;;;;;;;24.22;76.69;100578.75;5068514;28;20671;-74
2022/05/27 07:36:40;;;;;;;6.43;3.08;;;;;;;24.46;77.85;100587.66;5062234;28;20203;-75
2022/05/27 07:39:07;;;;;;;4.07;3.65;;;;;;;24.36;75.98;100570.31;5052196;28;20206;-75
2022/05/27 07:41:35;;;;;;;6.88;3.65;;;;;;;24.25;79.81;100583.94;5065051;28;20260;-75
2022/05/27 07:44:03;;;;;;;8.48;3.78;;;;;;;23.67;85.51;100553.09;5054794;28;20199;-75
2022/05/27 07:46:31;;;;;;;6.90;4.30;;;;;;;24.12;84.17;100577.25;5071481;28;20211;-75
2022/05/27 07:49:00;;;;;;;8.88;3.88;;;;;;;24.14;87.72;100571.03;5071328;28;20212;-74
2022/05/27 07:51:26;;;;;;;8.15;3.97;;;;;;;24.38;86.46;100573.78;5071324;28;20564;-75
2022/05/27 07:53:53;;;;;;;5.07;4.00;;;;;;;24.22;84.28;100570.78;5071162;28;20202;-74
2022/05/27 07:56:20;;;;;;;4.60;4.10;;;;;;;24.31;87.10;100580.19;5070864;28;20214;-74
2022/05/27 07:58:47;;;;;;;18.73;4.85;;;;;;;24.06;88.55;100557.13;5071223;28;20260;-73
2022/05/27 08:01:15;;;;;;;4.20;3.85;;;;;;;23.80;91.64;100580.94;5071268;28;20313;-74
2022/05/27 08:03:42;;;;;;;3.53;3.25;;;;;;;23.60;95.80;100580.69;5070449;28;20210;-74
2022/05/27 08:06:11;;;;;;;8.60;4.38;;;;;;;23.72;96.75;100567.09;5070439;28;20199;-74
2022/05/27 08:08:38;;;;;;;8.45;4.28;;;;;;;23.72;97.67;100540.59;5070559;28;20237;-74
2022/05/27 08:11:06;;;;;;;9.73;4.18;;;;;;;23.58;95.75;100550.75;5070044;28;20199;-74
2022/05/27 08:13:34;;;;;;;18.20;5.28;;;;;;;23.70;98.50;100564.47;5050834;28;20528;-79
2022/05/27 08:16:00;;;;;;;10.20;5.53;;;;;;;23.68;99.23;100565.44;5051230;28;20211;-79
2022/05/27 08:18:27;;;;;;;5.55;4.00;;;;;;;23.63;100.00;100573.50;5050469;28;20206;-78
2022/05/27 08:20:54;;;;;;;7.38;5.50;;;;;;;23.50;100.00;100566.00;5054493;28;20258;-78
2022/05/27 08:23:24;;;;;;;12.63;4.45;;;;;;;23.61;100.00;100554.16;5051175;28;20675;-78
2022/05/27 08:25:51;;;;;;;5.63;5.22;;;;;;;24.11;99.10;100567.59;5051500;28;20199;-78
2022/05/27 08:28:18;;;;;;;12.02;5.00;;;;;;;24.45;95.89;100564.69;5051448;28;20679;-78
2022/05/27 08:30:45;;;;;;;11.27;5.00;;;;;;;24.31;96.13;100557.22;5051227;28;20297;-79
2022/05/27 08:33:12;;;;;;;8.88;5.38;;;;;;;24.61;94.99;100565.91;5051478;28;20200;-78
2022/05/27 08:38:35;;;;;;;7.88;4.70;;;;;;;24.82;93.11;100548.38;5061186;28;20214;-78
2022/05/27 08:41:23;;;;;;;6.25;4.50;;;;;;;24.57;95.97;100561.63;5059603;28;20223;-77
2022/05/27 08:44:02;;;;;;;6.88;4.40;;;;;;;24.98;93.67;100545.13;5051208;28;20204;-77
2022/05/27 08:46:41;;;;;;;5.43;4.93;;;;;;;24.86;92.44;100542.94;5063222;28;20199;-78
2022/05/27 08:49:14;;;;;;;6.15;4.82;;;;;;;25.04;92.44;100536.94;5070864;28;20244;-78
2022/05/27 08:51:49;;;;;;;5.93;4.28;;;;;;;25.16;89.51;100528.53;5070890;28;20678;-79
2022/05/27 08:54:23;;;;;;;7.28;4.15;;;;;;;24.90;87.98;100536.56;5035657;28;20283;-77
2022/05/27 08:59:40;;;;;;;6.10;4.90;;;;;;;25.37;87.43;100532.16;5050614;28;20282;-78
2022/05/27 09:02:17;;;;;;;7.22;4.70;;;;;;;25.28;87.06;100534.31;5058756;28;20698;-78
2022/05/27 09:04:53;;;;;;;7.32;5.35;;;;;;;25.46;86.79;100525.63;5053853;28;20708;-78
2022/05/27 09:07:32;;;;;;;7.90;5.05;;;;;;;25.68;87.32;100528.34;5050800;28;20202;-79
2022/05/27 09:10:04;;;;;;;6.25;5.10;;;;;;;25.40;85.40;100499.31;5064456;28;20207;-78
2022/05/27 09:12:41;;;;;;;3.88;3.58;;;;;;;25.50;85.05;100521.94;5070678;28;20195;-78
2022/05/27 09:15:26;;;;;;;6.13;4.60;;;;;;;25.80;85.79;100520.72;5070606;28;20190;-74
2022/05/27 09:18:00;;;;;;;7.75;4.90;;;;;;;25.82;84.19;100518.03;5071012;28;20211;-77
2022/05/27 09:20:38;;;;;;;10.18;5.05;;;;;;;25.59;82.14;100495.03;5058868;28;20333;-80
2022/05/27 09:23:20;;;;;;;7.68;4.28;;;;;;;25.82;82.98;100513.56;5051002;28;20234;-79
2022/05/27 09:26:00;;;;;;;5.15;3.88;;;;;;;25.79;82.31;100512.84;4990133;28;20664;-73
2022/05/27 09:28:51;;;;;;;5.10;4.55;;;;;;;26.05;80.33;100516.13;4996769;28;20705;-71
2022/05/27 09:31:30;;;;;;;8.45;4.50;;;;;;;26.26;78.01;100492.25;4999275;28;20216;-72
2022/05/27 09:33:57;;;;;;;4.57;4.03;;;;;;;26.10;73.23;100503.53;4958593;28;20209;-71
2022/05/27 09:36:34;;;;;;;4.47;3.63;;;;;;;26.05;75.56;100499.31;4988382;28;20686;-72
2022/05/27 09:39:03;;;;;;;3.95;3.47;;;;;;;26.17;73.33;100497.94;4997074;28;20290;-72
2022/05/27 09:41:40;;;;;;;7.18;3.88;;;;;;;26.22;73.62;100498.66;5008808;28;20247;-74
2022/05/27 09:44:20;;;;;;;7.32;3.78;;;;;;;26.10;72.91;100500.88;5042930;28;20217;-76
2022/05/27 09:46:47;;;;;;;4.75;4.00;;;;;;;26.23;73.85;100484.41;5057903;28;20699;-75
2022/05/27 09:49:14;;;;;;;4.10;3.70;;;;;;;26.48;75.39;100488.63;5050175;28;20214;-74
2022/05/27 09:51:41;;;;;;;5.22;4.07;;;;;;;26.71;72.30;100489.41;5053621;28;20207;-73
2022/05/27 09:54:30;;;;;;;5.47;3.70;;;;;;;26.40;72.68;100484.56;5049911;28;20214;-72
2022/05/27 09:57:02;;;;;;;5.35;4.68;;;;;;;26.23;74.61;100471.13;4988021;28;20649;-72
2022/05/27 09:59:36;;;;;;;5.18;4.70;;;;;;;26.49;74.25;100484.16;4988469;28;20236;-72
2022/05/27 10:02:20;;;;;;;6.72;4.13;;;;;;;26.49;74.67;100484.16;4988097;28;20653;-72
2022/05/27 10:04:53;;;;;;;4.63;4.03;;;;;;;26.42;73.69;100478.25;4999626;28;20232;-73
2022/05/27 10:07:26;;;;;;;4.13;3.72;;;;;;;26.54;72.48;100482.19;4990869;28;20292;-72
2022/05/27 10:09:53;;;;;;;5.05;4.32;;;;;;;26.77;71.87;100478.47;4990638;28;20307;-75
2022/05/27 10:12:33;;;;;;;13.07;5.60;;;;;;;27.04;71.38;100475.44;4998969;28;20201;-75
2022/05/27 10:15:00;;;;;;;4.90;3.75;;;;;;;27.09;69.84;100475.22;4991805;28;20243;-74
2022/05/27 10:17:31;;;;;;;5.95;4.00;;;;;;;27.21;69.33;100479.13;5010250;28;20692;-74
2022/05/27 10:20:16;;;;;;;9.18;4.28;;;;;;;27.12;69.09;100453.78;4958877;28;20215;-74
2022/05/27 10:22:43;;;;;;;3.58;3.38;;;;;;;27.20;68.53;100470.28;5001587;28;20208;-74
2022/05/27 10:25:13;;;;;;;5.80;4.50;;;;;;;27.15;69.27;100458.97;5010544;28;20228;-74
2022/05/27 10:27:44;;;;;;;6.60;3.72;;;;;;;27.40;64.63;100463.97;4994678;28;20817;-74
2022/05/27 10:30:25;;;;;;;6.43;3.75;;;;;;;26.98;61.62;100430.47;5001910;28;20213;-74
2022/05/27 10:32:52;;;;;;;5.75;3.63;;;;;;;27.05;61.90;100455.88;4998981;28;20241;-71
2022/05/27 10:35:33;;;;;;;10.05;4.45;;;;;;;27.04;64.47;100440.84;5035182;28;20202;-73
2022/05/27 10:38:11;;;;;;;4.38;3.50;;;;;;;27.28;63.60;100454.81;5069934;28;20717;-74
2022/05/27 10:40:41;;;;;;;6.07;3.63;;;;;;;27.36;63.49;100452.63;5055017;28;20223;-75
2022/05/27 10:43:25;;;;;;;3.67;3.38;;;;;;;27.70;61.81;100451.00;5052956;28;20191;-73
2022/05/27 10:45:55;;;;;;;3.60;3.30;;;;;;;27.67;59.67;100449.38;5052917;28;21205;-75
2022/05/27 10:48:48;;;;;;;3.45;3.13;;;;;;;27.78;60.16;100449.72;5068401;28;20348;-72
2022/05/27 10:51:26;;;;;;;10.60;3.33;;;;;;;27.49;58.67;100435.16;5052841;28;20203;-70
2022/05/27 10:54:08;;;;;;;3.47;3.10;;;;;;;27.42;58.47;100440.81;5052360;28;20199;-73
2022/05/27 11:02:03;;;;;;;4.22;3.53;;;;;;;27.42;59.75;100424.84;5052530;28;20199;-76
2022/05/27 11:02:44;;;;;;;4.70;3.13;;;;;;;27.57;58.68;100424.97;5052234;28;20226;-74
2022/05/27 11:05:25;;;;;;;6.75;3.60;;;;;;;27.74;57.97;100410.81;5052338;28;20210;-75
2022/05/27 11:08:17;;;;;;;6.13;3.60;;;;;;;27.76;57.56;100411.59;5052104;28;20242;-73
2022/05/27 11:10:53;;;;;;;4.47;3.22;;;;;;;27.93;57.94;100406.25;5052288;28;20203;-74
2022/05/27 11:16:41;;;;;;;4.00;2.80;;;;;;;28.01;57.40;100405.88;4970870;28;20253;-73
2022/05/27 11:19:34;;;;;;;10.57;3.63;;;;;;;27.97;57.23;100399.81;4955175;28;20218;-73
2022/05/27 11:22:14;;;;;;;6.18;3.35;;;;;;;27.94;56.58;100400.00;4976942;28;20244;-72
2022/05/27 11:25:08;;;;;;;5.90;3.00;;;;;;;27.85;55.32;100375.63;4990285;28;20213;-72
2022/05/27 11:27:55;;;;;;;4.97;3.25;;;;;;;27.85;55.85;100386.28;4990131;28;20205;-72
2022/05/27 11:30:33;;;;;;;4.75;3.30;;;;;;;28.03;56.30;100393.34;4941656;28;20208;-73
2022/05/27 11:33:22;;;;;;;3.60;3.30;;;;;;;27.88;56.60;100387.00;4990275;28;20645;-72
2022/05/27 11:36:09;;;;;;;4.90;3.20;;;;;;;28.21;56.08;100383.53;4990055;28;20341;-72
2022/05/27 11:38:53;;;;;;;5.57;3.65;;;;;;;28.57;54.97;100389.59;4990086;28;20205;-73
2022/05/27 11:41:27;;;;;;;6.00;3.05;;;;;;;28.64;54.90;100390.13;4989273;28;20327;-73
2022/05/27 11:44:06;;;;;;;6.75;3.13;;;;;;;28.71;54.70;100373.72;4987902;28;20213;-73
2022/05/27 11:46:48;;;;;;;3.60;2.67;;;;;;;28.80;54.84;100367.84;4959331;28;20228;-73
2022/05/27 11:49:36;;;;;;;4.80;3.22;;;;;;;28.43;53.96;100338.78;4989692;28;20209;-72
2022/05/27 11:52:44;;;;;;;3.55;3.10;;;;;;;28.75;52.82;100367.25;5014148;28;20211;-71
2022/05/27 11:55:48;;;;;;;3.40;3.17;;;;;;;28.34;53.40;100368.59;4989954;28;20216;-74
2022/05/27 11:58:21;;;;;;;9.48;3.10;;;;;;;28.57;54.47;100322.88;4970126;28;20198;-71
2022/05/27 12:00:56;;;;;;;2.65;2.47;;;;;;;28.47;53.17;100354.50;4970307;28;20390;-70
2022/05/27 12:03:35;;;;;;;4.28;3.88;;;;;;;28.68;53.13;100327.66;4970326;28;20573;-72
2022/05/27 12:06:08;;;;;;;3.83;2.70;;;;;;;28.71;51.81;100347.03;4939330;28;20209;-71
2022/05/27 12:08:42;;;;;;;2.90;2.70;;;;;;;28.70;51.97;100339.09;4969938;28;20240;-73